createdAt,value
2023-03-26T00:00:45.668Z,1.58
2023-03-26T00:03:47.723Z,1.58
2023-03-26T00:06:14.388Z,1.25
2023-03-26T00:08:45.901Z,1.30
2023-03-26T00:11:22.370Z,1.27
2023-03-26T00:13:59.551Z,1.58
2023-03-26T00:16:41.098Z,1.40
2023-03-26T00:19:13.257Z,1.52
2023-03-26T00:21:43.210Z,1.40
2023-03-26T00:24:18.268Z,2.53
2023-03-26T00:26:55.616Z,1.30
2023-03-26T00:29:27.191Z,1.40
2023-03-26T00:31:56.238Z,1.60
2023-03-26T00:34:47.029Z,1.45
2023-03-26T00:37:19.360Z,2.13
2023-03-26T00:40:00.728Z,2.13
2023-03-26T00:42:47.713Z,1.38
2023-03-26T00:45:22.238Z,1.50
2023-03-26T00:47:51.652Z,1.40
2023-03-26T00:50:44.370Z,1.40
2023-03-26T00:53:17.890Z,1.02
2023-03-26T00:55:51.097Z,1.27
2023-03-26T00:58:30.934Z,1.42
2023-03-26T01:01:14.550Z,1.23
2023-03-26T01:04:01.196Z,1.30
2023-03-26T01:06:43.636Z,1.58
2023-03-26T01:09:24.618Z,1.48
2023-03-26T01:12:09.294Z,1.05
2023-03-26T01:14:40.755Z,1.50
2023-03-26T01:17:18.846Z,1.38
2023-03-26T01:20:13.591Z,1.20
2023-03-26T01:22:49.025Z,1.30
2023-03-26T01:25:20.172Z,1.25
2023-03-26T01:27:55.735Z,1.35
2023-03-26T01:30:32.783Z,1.90
2023-03-26T01:33:20.991Z,2.25
2023-03-26T01:35:58.162Z,1.35
2023-03-26T01:39:00.854Z,1.40
2023-03-26T01:42:13.216Z,1.52
2023-03-26T01:44:51.507Z,1.30
2023-03-26T01:47:32.119Z,1.60
2023-03-26T01:50:08.158Z,1.65
2023-03-26T01:52:42.816Z,2.10
2023-03-26T01:55:13.766Z,2.10
2023-03-26T01:58:28.060Z,2.08
2023-03-26T02:01:15.595Z,1.83
2023-03-26T02:04:17.201Z,1.73
2023-03-26T02:06:59.517Z,1.50
2023-03-26T02:09:33.288Z,2.30
2023-03-26T02:12:05.322Z,1.63
2023-03-26T02:14:49.779Z,1.42
2023-03-26T02:17:22.412Z,1.50
2023-03-26T02:19:54.208Z,1.60
2023-03-26T02:22:30.806Z,1.15
2023-03-26T02:25:02.368Z,1.42
2023-03-26T02:27:34.947Z,1.20
2023-03-26T02:30:09.697Z,1.40
2023-03-26T02:32:45.681Z,1.50
2023-03-26T02:35:17.156Z,2.40
2023-03-26T02:37:47.794Z,1.98
2023-03-26T02:40:31.906Z,1.92
2023-03-26T02:43:09.325Z,2.38
2023-03-26T02:45:56.466Z,2.10
2023-03-26T02:48:55.594Z,3.35
2023-03-26T02:51:28.412Z,3.40
2023-03-26T02:54:10.828Z,3.85
2023-03-26T02:56:58.105Z,2.40
2023-03-26T02:59:47.256Z,2.13
2023-03-26T03:03:12.787Z,2.42
2023-03-26T03:06:02.570Z,3.72
2023-03-26T03:09:06.037Z,4.03
2023-03-26T03:11:52.460Z,3.60
2023-03-26T03:14:32.460Z,3.00
2023-03-26T03:17:07.467Z,3.00
2023-03-26T03:19:36.678Z,3.20
2023-03-26T03:22:06.316Z,2.85
2023-03-26T03:24:36.835Z,3.70
2023-03-26T03:27:06.061Z,3.20
2023-03-26T03:29:48.520Z,3.47
2023-03-26T03:32:45.440Z,9.45
2023-03-26T03:35:19.694Z,11.38
2023-03-26T03:37:52.837Z,7.70
2023-03-26T03:40:24.693Z,7.85
2023-03-26T03:42:54.478Z,7.70
2023-03-26T03:45:32.899Z,5.13
2023-03-26T03:48:27.813Z,4.03
2023-03-26T03:50:58.281Z,4.57
2023-03-26T03:53:47.457Z,5.10
2023-03-26T03:56:20.881Z,4.00
2023-03-26T03:59:15.403Z,3.90
2023-03-26T04:01:48.321Z,3.60
2023-03-26T04:04:31.575Z,3.20
2023-03-26T04:07:14.871Z,3.03
2023-03-26T04:10:17.264Z,3.03
2023-03-26T04:13:08.072Z,3.10
2023-03-26T04:15:53.264Z,3.28
2023-03-26T04:18:23.548Z,5.72
2023-03-26T04:21:05.565Z,7.93
2023-03-26T04:23:36.567Z,32.67
2023-03-26T04:26:21.958Z,14.98
2023-03-26T04:29:23.764Z,6.15
2023-03-26T04:32:09.106Z,4.95
2023-03-26T04:34:49.000Z,4.70
2023-03-26T04:37:40.503Z,5.90
2023-03-26T04:40:23.745Z,7.50
2023-03-26T04:43:20.464Z,8.13
2023-03-26T04:46:14.299Z,6.93
2023-03-26T04:48:52.733Z,5.10
2023-03-26T04:51:27.924Z,4.70
2023-03-26T04:54:01.525Z,5.30
2023-03-26T04:56:54.059Z,5.93
2023-03-26T04:59:42.735Z,4.03
2023-03-26T05:02:15.375Z,4.65
2023-03-26T05:04:58.140Z,6.15
2023-03-26T05:07:34.027Z,5.07
2023-03-26T05:10:19.436Z,15.27
2023-03-26T05:13:06.831Z,7.28
2023-03-26T05:15:41.610Z,4.65
2023-03-26T05:18:25.025Z,3.70
2023-03-26T05:21:02.405Z,4.20
2023-03-26T05:23:32.828Z,3.20
2023-03-26T05:26:14.864Z,3.00
2023-03-26T05:28:43.914Z,5.30
2023-03-26T05:31:38.891Z,11.60
2023-03-26T05:34:08.103Z,10.80
2023-03-26T05:36:40.732Z,10.63
2023-03-26T05:39:27.680Z,10.00
2023-03-26T05:42:05.592Z,21.95
2023-03-26T05:45:00.902Z,22.90
2023-03-26T05:47:32.112Z,13.88
2023-03-26T05:50:01.717Z,12.52
2023-03-26T05:52:32.087Z,6.57
2023-03-26T05:55:20.978Z,4.97
2023-03-26T05:58:08.479Z,4.80
2023-03-26T06:01:17.867Z,9.60
2023-03-26T06:04:05.170Z,4.50
2023-03-26T06:06:43.992Z,13.30
2023-03-26T06:09:21.897Z,12.25
2023-03-26T06:11:55.616Z,12.20
2023-03-26T06:14:24.638Z,5.03
2023-03-26T06:17:14.192Z,3.15
2023-03-26T06:20:06.539Z,2.03
2023-03-26T06:22:45.793Z,2.00
2023-03-26T06:25:26.213Z,3.03
2023-03-26T06:28:27.842Z,5.80
2023-03-26T06:31:08.035Z,3.35
2023-03-26T06:33:54.840Z,3.22
2023-03-26T06:36:24.238Z,6.50
2023-03-26T06:38:56.307Z,16.02
2023-03-26T06:41:25.466Z,5.05
2023-03-26T06:44:02.129Z,2.50
2023-03-26T06:47:06.205Z,1.80
2023-03-26T06:49:53.770Z,2.03
2023-03-26T06:52:54.149Z,1.90
2023-03-26T06:55:47.882Z,1.42
2023-03-26T06:58:36.034Z,2.08
2023-03-26T07:01:23.327Z,1.48
2023-03-26T07:04:10.662Z,2.30
2023-03-26T07:06:58.096Z,2.20
2023-03-26T07:12:46.742Z,2.47
2023-03-26T07:15:41.692Z,12.85
2023-03-26T07:18:30.776Z,26.15
2023-03-26T07:21:01.420Z,8.95
2023-03-26T07:23:33.460Z,19.77
2023-03-26T07:29:33.682Z,6.82
2023-03-26T07:32:29.854Z,2.78
2023-03-26T07:35:42.594Z,2.50
2023-03-26T07:38:55.523Z,2.35
2023-03-26T07:42:23.220Z,2.03
2023-03-26T07:45:21.165Z,2.80
2023-03-26T07:48:37.515Z,3.38
2023-03-26T07:51:33.145Z,4.43
2023-03-26T07:54:12.584Z,8.15
2023-03-26T07:57:23.330Z,7.97
2023-03-26T08:00:17.222Z,7.15
2023-03-26T08:03:21.765Z,6.53
2023-03-26T08:06:15.425Z,4.20
2023-03-26T08:14:29.682Z,2.92
2023-03-26T08:17:24.922Z,3.10
2023-03-26T08:19:58.806Z,4.07
2023-03-26T08:22:42.412Z,4.43
2023-03-26T08:25:37.422Z,3.92
2023-03-26T08:28:23.650Z,5.38
2023-03-26T08:30:58.871Z,4.28
2023-03-26T08:33:28.877Z,4.22
2023-03-26T08:35:58.060Z,4.80
2023-03-26T08:38:27.226Z,3.10
2023-03-26T08:41:18.054Z,1.80
2023-03-26T08:44:43.247Z,1.70
2023-03-26T08:47:52.146Z,1.83
2023-03-26T08:50:48.407Z,2.40
2023-03-26T08:53:41.598Z,2.17
2023-03-26T08:56:32.544Z,1.90
2023-03-26T08:59:01.594Z,1.90
2023-03-26T09:02:07.848Z,2.10
2023-03-26T09:04:55.443Z,2.25
2023-03-26T09:07:52.279Z,2.15
2023-03-26T09:10:51.377Z,1.90
2023-03-26T09:13:50.772Z,2.08
2023-03-26T09:16:22.427Z,2.20
2023-03-26T09:19:22.838Z,1.77
2023-03-26T09:22:14.598Z,2.35
2023-03-26T09:24:59.082Z,2.47
2023-03-26T09:27:41.840Z,2.10
2023-03-26T09:30:31.409Z,2.22
2023-03-26T09:33:22.416Z,2.20
2023-03-26T09:36:09.608Z,2.30
2023-03-26T09:38:42.191Z,2.60
2023-03-26T09:41:22.175Z,2.60
2023-03-26T09:44:09.182Z,2.85
2023-03-26T09:47:15.261Z,2.58
2023-03-26T09:50:22.400Z,2.60
2023-03-26T09:53:39.023Z,2.30
2023-03-26T09:56:21.946Z,2.78
2023-03-26T09:59:05.589Z,2.40
2023-03-26T10:01:41.653Z,2.30
2023-03-26T10:04:48.573Z,1.95
2023-03-26T10:07:18.471Z,2.58
2023-03-26T10:09:53.525Z,2.72
2023-03-26T10:13:13.581Z,2.40
2023-03-26T10:16:15.000Z,2.17
2023-03-26T10:19:02.261Z,2.10
2023-03-26T10:21:47.766Z,2.05
2023-03-26T10:24:47.713Z,2.75
2023-03-26T10:27:32.263Z,2.03
2023-03-26T10:30:36.065Z,2.10
2023-03-26T10:33:32.639Z,2.05
2023-03-26T10:36:31.443Z,2.17
2023-03-26T10:39:37.820Z,3.00
2023-03-26T10:42:16.491Z,2.00
2023-03-26T10:45:12.952Z,2.10
2023-03-26T10:47:57.076Z,2.38
2023-03-26T10:50:35.133Z,2.22
2023-03-26T10:53:25.345Z,1.75
2023-03-26T10:56:02.246Z,2.50
2023-03-26T10:58:46.094Z,2.45
2023-03-26T11:03:57.173Z,1.75
2023-03-26T11:07:06.416Z,1.90
2023-03-26T11:09:40.733Z,4.65
2023-03-26T11:12:26.791Z,3.10
2023-03-26T11:15:06.705Z,2.47
2023-03-26T11:17:49.312Z,2.67
2023-03-26T11:20:33.328Z,1.58
2023-03-26T11:23:49.071Z,2.42
2023-03-26T11:26:56.395Z,2.00
2023-03-26T11:30:11.114Z,1.77
2023-03-26T11:32:51.320Z,2.15
2023-03-26T11:35:43.707Z,2.10
2023-03-26T11:38:34.332Z,1.75
2023-03-26T11:41:12.520Z,1.77
2023-03-26T11:43:55.678Z,1.50
2023-03-26T11:46:27.556Z,1.70
2023-03-26T11:49:01.093Z,2.00
2023-03-26T11:51:38.784Z,1.65
2023-03-26T11:54:11.992Z,2.22
2023-03-26T11:57:04.904Z,1.80
2023-03-26T11:59:57.653Z,2.38
2023-03-26T12:02:40.918Z,1.60
2023-03-26T12:05:21.404Z,2.10
2023-03-26T12:07:59.215Z,1.90
2023-03-26T12:10:31.904Z,2.80
2023-03-26T12:13:03.984Z,1.73
2023-03-26T12:15:33.470Z,1.92
2023-03-26T12:18:26.573Z,1.80
2023-03-26T12:21:13.181Z,2.28
2023-03-26T12:24:07.549Z,3.40
2023-03-26T12:26:43.632Z,2.85
2023-03-26T12:29:19.644Z,3.30
2023-03-26T12:32:03.953Z,2.33
2023-03-26T12:34:36.980Z,2.28
2023-03-26T12:37:09.022Z,2.10
2023-03-26T12:40:09.417Z,1.92
2023-03-26T12:44:48.639Z,2.03
2023-03-26T12:45:38.944Z,1.98
2023-03-26T12:48:11.044Z,2.22
2023-03-26T12:50:47.264Z,1.98
2023-03-26T12:53:33.638Z,2.00
2023-03-26T12:56:28.196Z,2.47
2023-03-26T12:59:19.498Z,2.55
2023-03-26T13:01:55.838Z,1.85
2023-03-26T13:04:27.522Z,2.22
2023-03-26T13:07:02.383Z,2.80
2023-03-26T13:09:40.537Z,2.90
2023-03-26T13:12:41.756Z,2.38
2023-03-26T13:15:21.993Z,1.85
2023-03-26T13:18:07.407Z,1.80
2023-03-26T13:21:01.725Z,1.67
2023-03-26T13:24:07.747Z,1.58
2023-03-26T13:26:45.815Z,1.83
2023-03-26T13:29:34.067Z,1.98
2023-03-26T13:32:30.946Z,1.90
2023-03-26T13:35:06.331Z,1.70
2023-03-26T13:38:06.591Z,2.00
2023-03-26T13:41:02.083Z,2.17
2023-03-26T13:43:48.213Z,2.38
2023-03-26T13:46:56.400Z,2.15
2023-03-26T13:49:41.794Z,1.83
2023-03-26T13:52:23.094Z,2.03
2023-03-26T13:55:02.434Z,1.80
2023-03-26T13:57:42.745Z,2.03
2023-03-26T14:00:28.351Z,2.10
2023-03-26T14:03:12.502Z,3.00
2023-03-26T14:05:48.570Z,3.28
2023-03-26T14:08:33.661Z,2.77
2023-03-26T14:11:19.067Z,2.15
2023-03-26T14:14:04.964Z,2.13
2023-03-26T14:16:47.579Z,2.50
2023-03-26T14:19:36.561Z,2.65
2023-03-26T14:22:31.191Z,2.08
2023-03-26T14:25:25.958Z,2.17
2023-03-26T14:28:25.917Z,1.95
2023-03-26T14:30:58.081Z,2.08
2023-03-26T14:33:34.913Z,1.48
2023-03-26T14:36:28.957Z,1.95
2023-03-26T14:39:20.657Z,2.15
2023-03-26T14:41:56.382Z,2.55
2023-03-26T14:44:47.758Z,3.65
2023-03-26T14:47:22.952Z,3.58
2023-03-26T14:50:12.977Z,6.97
2023-03-26T14:52:52.389Z,5.47
2023-03-26T14:56:07.014Z,4.97
2023-03-26T14:58:57.338Z,10.55
2023-03-26T15:01:48.176Z,2.25
2023-03-26T15:04:47.984Z,2.08
2023-03-26T15:07:52.808Z,1.70
2023-03-26T15:10:43.296Z,2.00
2023-03-26T15:13:35.396Z,2.70
2023-03-26T15:16:37.628Z,4.07
2023-03-26T15:19:15.417Z,3.15
2023-03-26T15:22:16.876Z,2.92
2023-03-26T15:25:26.907Z,2.97
2023-03-26T15:28:10.214Z,4.73
2023-03-26T15:31:21.972Z,4.40
2023-03-26T15:34:07.601Z,3.60
2023-03-26T15:36:55.769Z,1.60
2023-03-26T15:39:59.829Z,2.42
2023-03-26T15:42:52.890Z,1.90
2023-03-26T15:45:43.580Z,2.40
2023-03-26T15:48:12.860Z,2.50
2023-03-26T15:51:13.918Z,2.15
2023-03-26T15:54:17.922Z,2.40
2023-03-26T15:57:00.087Z,2.53
2023-03-26T15:59:44.193Z,1.63
2023-03-26T16:02:41.662Z,1.70
2023-03-26T16:05:46.514Z,1.80
2023-03-26T16:08:39.588Z,1.92
2023-03-26T16:11:13.475Z,2.30
2023-03-26T16:13:44.400Z,1.30
2023-03-26T16:16:16.954Z,1.77
2023-03-26T16:19:22.285Z,1.80
2023-03-26T16:22:05.121Z,2.10
2023-03-26T16:24:43.295Z,1.65
2023-03-26T16:27:16.845Z,1.83
2023-03-26T16:30:02.729Z,1.95
2023-03-26T16:32:37.846Z,1.80
2023-03-26T16:35:16.437Z,1.50
2023-03-26T16:38:05.537Z,1.67
2023-03-26T16:40:37.949Z,2.53
2023-03-26T16:43:34.755Z,2.00
2023-03-26T16:46:11.022Z,2.13
2023-03-26T16:48:53.613Z,2.08
2023-03-26T16:51:26.660Z,2.13
2023-03-26T16:54:23.654Z,1.73
2023-03-26T16:56:58.397Z,2.00
2023-03-26T17:00:07.038Z,1.95
2023-03-26T17:03:02.090Z,2.20
2023-03-26T17:05:39.300Z,1.92
2023-03-26T17:08:35.981Z,1.50
2023-03-26T17:11:20.195Z,1.58
2023-03-26T17:14:24.026Z,1.67
2023-03-26T17:17:31.407Z,1.50
2023-03-26T17:21:45.932Z,1.73
2023-03-26T17:24:23.329Z,1.60
2023-03-26T17:27:38.210Z,1.95
2023-03-26T17:30:52.066Z,1.30
2023-03-26T17:33:32.514Z,1.75
2023-03-26T17:36:16.591Z,1.50
2023-03-26T17:38:50.893Z,1.33
2023-03-26T17:42:13.031Z,1.30
2023-03-26T17:44:56.464Z,1.30
2023-03-26T17:47:40.942Z,1.58
2023-03-26T17:50:28.700Z,1.50
2023-03-26T17:53:08.630Z,1.70
2023-03-26T17:55:50.055Z,1.45
2023-03-26T17:58:38.491Z,1.42
2023-03-26T18:01:37.336Z,1.25
2023-03-26T18:04:29.085Z,1.40
2023-03-26T18:07:35.302Z,1.58
2023-03-26T18:10:29.959Z,1.55
2023-03-26T18:13:23.908Z,1.60
2023-03-26T18:16:17.198Z,1.48
2023-03-26T18:19:06.091Z,1.30
2023-03-26T18:21:41.101Z,1.27
2023-03-26T18:24:25.713Z,1.52
2023-03-26T18:27:12.614Z,1.38
2023-03-26T18:30:02.689Z,1.70
2023-03-26T18:32:34.201Z,2.22
2023-03-26T18:35:21.124Z,1.27
2023-03-26T18:37:54.253Z,1.35
2023-03-26T18:40:25.851Z,1.58
2023-03-26T18:42:58.750Z,1.25
2023-03-26T18:45:34.422Z,2.03
2023-03-26T18:48:20.097Z,1.10
2023-03-26T18:50:55.276Z,1.42
2023-03-26T18:53:32.912Z,1.15
2023-03-26T18:56:02.044Z,1.27
2023-03-26T18:58:33.139Z,1.52
2023-03-26T19:01:05.489Z,1.65
2023-03-26T19:03:52.591Z,1.50
2023-03-26T19:06:33.419Z,1.45
2023-03-26T19:09:28.204Z,1.35
2023-03-26T19:12:08.024Z,1.35
2023-03-26T19:15:04.786Z,1.27
2023-03-26T19:17:46.907Z,1.30
2023-03-26T19:20:27.958Z,1.30
2023-03-26T19:22:58.830Z,1.30
2023-03-26T19:25:39.519Z,1.83
2023-03-26T19:28:21.024Z,1.17
2023-03-26T19:31:01.272Z,1.00
2023-03-26T19:33:58.726Z,1.48
2023-03-26T19:36:35.420Z,1.40
2023-03-26T19:39:24.367Z,1.48
2023-03-26T19:42:09.500Z,1.20
2023-03-26T19:44:43.272Z,0.95
2023-03-26T19:47:35.384Z,2.00
2023-03-26T19:50:26.698Z,1.40
2023-03-26T19:53:16.906Z,1.17
2023-03-26T19:56:06.297Z,1.10
2023-03-26T19:58:36.490Z,1.42
2023-03-26T20:01:17.949Z,1.33
2023-03-26T20:03:50.428Z,1.40
2023-03-26T20:06:37.763Z,1.40
2023-03-26T20:09:15.063Z,1.70
2023-03-26T20:11:51.136Z,1.23
2023-03-26T20:14:26.763Z,1.35
2023-03-26T20:16:56.124Z,1.10
2023-03-26T20:19:26.621Z,1.50
2023-03-26T20:21:56.425Z,1.52
2023-03-26T20:24:28.269Z,0.98
2023-03-26T20:27:12.832Z,1.20
2023-03-26T20:29:43.120Z,1.20
2023-03-26T20:32:26.337Z,1.50
2023-03-26T20:35:35.868Z,1.05
2023-03-26T20:38:06.240Z,1.23
2023-03-26T20:40:41.318Z,0.95
2023-03-26T20:43:21.060Z,0.80
2023-03-26T20:45:52.978Z,1.23
2023-03-26T20:50:56.733Z,1.17
2023-03-26T20:53:25.995Z,1.25
2023-03-26T20:55:54.892Z,1.02
2023-03-26T20:58:31.318Z,1.20
2023-03-26T21:01:02.778Z,1.20
2023-03-26T21:03:31.837Z,1.00
2023-03-26T21:06:06.530Z,1.10
2023-03-26T21:08:36.061Z,0.95
2023-03-26T21:11:06.918Z,1.10
2023-03-26T21:13:52.989Z,0.90
2023-03-26T21:16:25.800Z,0.98
2023-03-26T21:18:55.637Z,0.85
2023-03-26T21:21:46.997Z,1.35
2023-03-26T21:24:37.919Z,1.00
2023-03-26T21:27:31.006Z,1.05
2023-03-26T21:30:03.707Z,0.82
2023-03-26T21:32:37.062Z,1.00
2023-03-26T21:35:07.034Z,0.82
2023-03-26T21:38:06.306Z,0.70
2023-03-26T21:40:40.582Z,0.85
2023-03-26T21:43:18.917Z,0.93
2023-03-26T21:46:09.535Z,0.90
2023-03-26T21:48:42.606Z,1.08
2023-03-26T21:51:16.167Z,0.77
2023-03-26T21:53:45.645Z,1.15
2023-03-26T21:56:38.876Z,1.10
2023-03-26T21:59:36.253Z,0.80
2023-03-26T22:02:37.002Z,0.70
2023-03-26T22:05:30.659Z,0.80
2023-03-26T22:08:04.412Z,1.20
2023-03-26T22:10:33.779Z,1.10
2023-03-26T22:13:07.730Z,1.02
2023-03-26T22:16:28.583Z,0.90
2023-03-26T22:18:57.263Z,1.23
2023-03-26T22:21:28.282Z,0.90
2023-03-26T22:24:07.570Z,1.50
2023-03-26T22:26:57.568Z,0.90
2023-03-26T22:29:29.569Z,0.80
2023-03-26T22:32:48.716Z,0.90
2023-03-26T22:35:08.498Z,1.05
2023-03-26T22:38:06.477Z,0.90
2023-03-26T22:40:48.419Z,0.73
2023-03-26T22:43:19.238Z,0.98
2023-03-26T22:46:11.706Z,1.00
2023-03-26T22:49:05.210Z,0.63
2023-03-26T22:51:40.318Z,0.70
2023-03-26T22:54:28.331Z,0.90
2023-03-26T22:57:01.125Z,0.90
2023-03-26T22:59:33.990Z,0.63
2023-03-26T23:02:05.694Z,1.10
2023-03-26T23:04:38.419Z,3.88
2023-03-26T23:07:12.182Z,1.53
2023-03-26T23:10:17.169Z,0.80
2023-03-26T23:12:57.342Z,0.77
2023-03-26T23:15:33.298Z,0.93
2023-03-26T23:18:28.220Z,0.50
2023-03-26T23:23:54.834Z,0.88
2023-03-26T23:26:51.474Z,0.68
2023-03-26T23:29:23.337Z,0.75
2023-03-26T23:31:53.701Z,0.85
2023-03-26T23:34:36.608Z,0.73
2023-03-26T23:37:14.321Z,0.65
2023-03-26T23:39:48.977Z,0.60
2023-03-26T23:45:22.995Z,0.70
2023-03-26T23:48:05.975Z,0.57
2023-03-26T23:50:41.301Z,0.50
2023-03-26T23:53:18.029Z,0.55
2023-03-26T23:56:14.204Z,0.60
2023-03-26T23:59:07.117Z,0.47
